Terminal Aerodrome Forecast
Issued by NWS

Home | Current Version | Previous Version | Text Only | Print | Product List | Glossary On
Versions: 1 2 3 4 5 6 7 8 9 10 11 12
000
FTUS46 KSGX 061730
TAFSNA
TAF
KSNA 061730Z 0618/0718 21010KT P6SM BKN040
     FM070200 VRB05KT P6SM OVC035
     FM070900 17007KT P6SM OVC025
     FM071700 21012KT P6SM BKN035=

USA.gov is the U.S. government's official web portal to all federal, state and local government web resources and services.